📊 Raw Sensor Data
Showing records 46426 to 46450 of 85,070 total
| ID | Distance (ft) | Battery V | Battery A | Int Temp (°F) | Int Humid (%) | Ext Temp (°F) | Solar V | RSSI | SNR | Time Stamp |
|---|---|---|---|---|---|---|---|---|---|---|
| 38657 | -- | 3.99 | -6 | 57 | 50 | 56 | 4.40 | -81 | 8 | 04/23/2025 07:46 PM |
| 38656 | -- | 4.01 | 0 | 61 | 50 | 57 | 4.50 | -85 | 9 | 04/23/2025 07:30 PM |
| 38655 | -- | 4.02 | 9 | 65 | 48 | 60 | 4.50 | -82 | 8 | 04/23/2025 07:15 PM |
| 38654 | -- | 3.98 | 13 | 68 | 47 | 63 | 4.50 | -82 | 8 | 04/23/2025 07:00 PM |
| 38653 | -- | 4.02 | 6 | 69 | 47 | 63 | 4.50 | -83 | 8 | 04/23/2025 06:45 PM |
| 38652 | -- | 4.04 | 38 | 71 | 47 | 65 | 4.50 | -87 | 6 | 04/23/2025 06:31 PM |
| 38651 | -- | 3.97 | 5 | 73 | 47 | 67 | 5.10 | -85 | 8 | 04/23/2025 06:15 PM |
| 38650 | -- | 3.97 | 0 | 75 | 46 | 69 | 5.10 | -85 | 9 | 04/23/2025 05:45 PM |
| 38649 | -- | 3.97 | 6 | 76 | 46 | 67 | 5.10 | -84 | 7 | 04/23/2025 05:30 PM |
| 38648 | -- | 3.97 | 0 | 79 | 45 | 70 | 5.10 | -94 | 7 | 04/23/2025 05:15 PM |
| 38647 | -- | 3.97 | 0 | 80 | 44 | 72 | 5.10 | -83 | 9 | 04/23/2025 05:00 PM |
| 38646 | -- | 3.97 | 0 | 81 | 44 | 73 | 5.10 | -85 | 9 | 04/23/2025 04:45 PM |
| 38645 | -- | 3.97 | 0 | 81 | 43 | 70 | 5.10 | -84 | 8 | 04/23/2025 04:31 PM |
| 38644 | -- | 3.97 | 0 | 82 | 43 | 70 | 5.10 | -85 | 8 | 04/23/2025 04:15 PM |
| 38643 | -- | 3.97 | 0 | 84 | 41 | 76 | 5.10 | -84 | 9 | 04/23/2025 04:00 PM |
| 38642 | -- | 3.97 | 0 | 84 | 40 | 76 | 5.10 | -82 | 9 | 04/23/2025 03:45 PM |
| 38641 | -- | 3.97 | 6 | 83 | 40 | 74 | 5.10 | -87 | 8 | 04/23/2025 03:30 PM |
| 38640 | -- | 3.97 | 0 | 82 | 40 | 74 | 5.10 | -85 | 9 | 04/23/2025 03:15 PM |
| 38639 | -- | 3.97 | 0 | 82 | 39 | 73 | 5.10 | -87 | 8 | 04/23/2025 03:00 PM |
| 38638 | -- | 3.97 | 5 | 82 | 39 | 74 | 5.10 | -86 | 7 | 04/23/2025 02:45 PM |
| 38637 | -- | 3.97 | 6 | 80 | 39 | 71 | 5.10 | -82 | 8 | 04/23/2025 02:30 PM |
| 38636 | -- | 3.97 | 6 | 80 | 38 | 71 | 5.10 | -86 | 8 | 04/23/2025 02:15 PM |
| 38635 | -- | 3.97 | 0 | 79 | 38 | 70 | 5.10 | -82 | 8 | 04/23/2025 02:00 PM |
| 38634 | -- | 3.97 | 6 | 78 | 38 | 68 | 5.10 | -86 | 8 | 04/23/2025 01:45 PM |
| 38633 | -- | 3.97 | 0 | 77 | 38 | 68 | 5.10 | -91 | 8 | 04/23/2025 01:30 PM |